createdAt,value
2018-06-22T00:00:55.512Z,1.80
2018-06-22T00:03:31.262Z,1.90
2018-06-22T00:06:07.253Z,2.17
2018-06-22T00:08:43.671Z,2.00
2018-06-22T00:11:19.434Z,2.00
2018-06-22T00:13:55.697Z,1.90
2018-06-22T00:16:32.662Z,2.20
2018-06-22T00:19:07.928Z,1.90
2018-06-22T00:21:45.011Z,2.17
2018-06-22T00:24:20.422Z,2.03
2018-06-22T00:26:57.844Z,2.40
2018-06-22T00:29:34.511Z,1.97
2018-06-22T00:32:08.908Z,2.33
2018-06-22T00:34:45.186Z,1.80
2018-06-22T00:37:21.772Z,2.10
2018-06-22T00:39:58.098Z,2.00
2018-06-22T00:42:33.974Z,2.10
2018-06-22T00:45:09.518Z,2.00
2018-06-22T00:47:45.541Z,1.70
2018-06-22T00:50:22.053Z,1.90
2018-06-22T00:52:59.319Z,2.03
2018-06-22T00:55:35.785Z,2.10
2018-06-22T00:58:12.453Z,2.10
2018-06-22T01:00:48.427Z,2.07
2018-06-22T01:03:24.564Z,2.17
2018-06-22T01:06:02.940Z,2.17
2018-06-22T01:08:38.852Z,2.30
2018-06-22T01:11:14.174Z,2.10
2018-06-22T01:13:50.367Z,1.90
2018-06-22T01:16:27.612Z,2.33
2018-06-22T01:19:05.010Z,1.97
2018-06-22T01:21:40.970Z,2.43
2018-06-22T01:24:16.251Z,2.13
2018-06-22T01:26:51.563Z,2.00
2018-06-22T01:29:31.998Z,2.20
2018-06-22T01:32:09.633Z,2.30
2018-06-22T01:34:47.083Z,2.60
2018-06-22T01:37:22.872Z,2.00
2018-06-22T01:39:58.520Z,2.43
2018-06-22T01:42:34.870Z,2.63
2018-06-22T01:45:12.047Z,2.20
2018-06-22T01:47:47.109Z,2.37
2018-06-22T01:50:23.126Z,2.30
2018-06-22T01:53:00.057Z,2.50
2018-06-22T01:55:35.457Z,2.53
2018-06-22T01:58:11.014Z,2.43
2018-06-22T02:00:46.737Z,2.10
2018-06-22T02:03:22.000Z,2.70
2018-06-22T02:05:57.307Z,2.73
2018-06-22T02:08:33.291Z,2.03
2018-06-22T02:11:09.017Z,2.30
2018-06-22T02:13:46.198Z,2.20
2018-06-22T02:16:22.468Z,2.40
2018-06-22T02:18:57.926Z,2.70
2018-06-22T02:21:35.939Z,2.27
2018-06-22T02:24:12.671Z,2.43
2018-06-22T02:26:47.718Z,2.70
2018-06-22T02:29:24.102Z,2.30
2018-06-22T02:31:59.435Z,2.70
2018-06-22T02:34:35.286Z,2.83
2018-06-22T02:37:11.158Z,2.47
2018-06-22T02:39:46.854Z,2.67
2018-06-22T02:42:24.370Z,2.33
2018-06-22T02:45:01.541Z,2.67
2018-06-22T02:47:37.093Z,2.77
2018-06-22T02:50:13.690Z,2.80
2018-06-22T02:52:49.646Z,2.67
2018-06-22T02:55:24.646Z,2.60
2018-06-22T02:58:02.359Z,2.67
2018-06-22T03:00:37.698Z,2.97
2018-06-22T03:03:15.302Z,3.20
2018-06-22T03:05:50.735Z,3.00
2018-06-22T03:08:26.460Z,3.57
2018-06-22T03:11:03.059Z,2.80
2018-06-22T03:13:39.377Z,3.20
2018-06-22T03:16:15.773Z,3.13
2018-06-22T03:18:50.632Z,3.00
2018-06-22T03:21:26.054Z,2.90
2018-06-22T03:24:01.190Z,2.73
2018-06-22T03:26:37.289Z,3.20
2018-06-22T03:29:13.505Z,3.30
2018-06-22T03:31:50.678Z,3.40
2018-06-22T03:34:27.120Z,3.20
2018-06-22T03:37:02.403Z,3.00
2018-06-22T03:39:38.543Z,3.17
2018-06-22T03:42:13.909Z,2.97
2018-06-22T03:44:50.798Z,2.90
2018-06-22T03:47:27.961Z,3.03
2018-06-22T03:50:04.011Z,3.47
2018-06-22T03:52:40.169Z,3.57
2018-06-22T03:55:15.216Z,3.17
2018-06-22T03:57:51.159Z,3.40
2018-06-22T04:00:27.015Z,3.10
2018-06-22T04:03:01.334Z,4.17
2018-06-22T04:05:37.170Z,3.00
2018-06-22T04:08:12.520Z,2.83
2018-06-22T04:10:48.235Z,2.87
2018-06-22T04:13:22.713Z,2.83
2018-06-22T04:15:59.520Z,3.23
2018-06-22T04:18:35.124Z,3.00
2018-06-22T04:21:10.993Z,2.83
2018-06-22T04:23:47.096Z,3.17
2018-06-22T04:26:22.052Z,2.70
2018-06-22T04:28:58.628Z,3.03
2018-06-22T04:31:34.195Z,3.03
2018-06-22T04:34:11.066Z,3.03
2018-06-22T04:36:46.993Z,2.73
2018-06-22T04:39:21.942Z,3.03
2018-06-22T04:41:58.555Z,2.90
2018-06-22T04:44:33.389Z,2.83
2018-06-22T04:47:09.295Z,2.83
2018-06-22T04:49:44.779Z,3.00
2018-06-22T04:52:21.068Z,3.30
2018-06-22T04:54:59.304Z,2.70
2018-06-22T04:57:34.453Z,2.80
2018-06-22T05:00:11.198Z,3.20
2018-06-22T05:02:46.619Z,3.03
2018-06-22T05:05:23.085Z,3.17
2018-06-22T05:08:00.405Z,2.80
2018-06-22T05:10:36.277Z,3.20
2018-06-22T05:13:11.691Z,2.70
2018-06-22T05:15:46.942Z,3.53
2018-06-22T05:18:24.353Z,3.27
2018-06-22T05:20:59.747Z,3.23
2018-06-22T05:23:34.907Z,3.43
2018-06-22T05:26:10.068Z,3.17
2018-06-22T05:28:46.529Z,3.47
2018-06-22T05:31:21.853Z,3.47
2018-06-22T05:33:59.639Z,3.10
2018-06-22T05:36:36.776Z,3.40
2018-06-22T05:39:12.428Z,3.20
2018-06-22T05:41:48.090Z,3.37
2018-06-22T05:44:23.463Z,3.43
2018-06-22T05:46:59.772Z,3.40
2018-06-22T05:49:35.266Z,3.63
2018-06-22T05:52:10.188Z,3.87
2018-06-22T05:54:45.792Z,3.83
2018-06-22T05:57:21.067Z,3.90
2018-06-22T05:59:56.293Z,3.77
2018-06-22T06:02:31.483Z,3.57
2018-06-22T06:05:07.213Z,3.17
2018-06-22T06:07:42.679Z,3.53
2018-06-22T06:10:17.603Z,2.90
2018-06-22T06:12:52.921Z,2.80
2018-06-22T06:15:28.068Z,3.00
2018-06-22T06:18:03.418Z,3.27
2018-06-22T06:20:39.134Z,2.40
2018-06-22T06:23:14.832Z,3.20
2018-06-22T06:25:49.943Z,2.80
2018-06-22T06:28:24.883Z,2.43
2018-06-22T06:30:59.890Z,2.60
2018-06-22T06:33:35.783Z,2.17
2018-06-22T06:36:12.257Z,1.80
2018-06-22T06:38:46.980Z,2.30
2018-06-22T06:41:22.929Z,1.97
2018-06-22T06:43:58.110Z,2.10
2018-06-22T06:46:33.861Z,2.33
2018-06-22T06:49:09.118Z,2.10
2018-06-22T06:51:44.582Z,1.77
2018-06-22T06:54:20.131Z,1.60
2018-06-22T06:56:56.355Z,2.00
2018-06-22T06:59:31.897Z,1.97
2018-06-22T07:02:09.416Z,2.60
2018-06-22T07:04:45.065Z,2.03
2018-06-22T07:07:20.408Z,1.83
2018-06-22T07:09:55.901Z,1.90
2018-06-22T07:12:30.474Z,1.83
2018-06-22T07:15:09.396Z,1.80
2018-06-22T07:17:45.349Z,2.00
2018-06-22T07:20:20.890Z,1.90
2018-06-22T07:22:57.152Z,2.13
2018-06-22T07:25:32.622Z,2.03
2018-06-22T07:28:11.225Z,1.97
2018-06-22T07:30:47.055Z,2.20
2018-06-22T07:33:22.113Z,1.90
2018-06-22T07:35:59.045Z,2.10
2018-06-22T07:38:34.658Z,1.60
2018-06-22T07:41:09.996Z,1.93
2018-06-22T07:43:45.764Z,1.77
2018-06-22T07:46:20.846Z,1.37
2018-06-22T07:48:56.333Z,1.67
2018-06-22T07:51:32.033Z,1.60
2018-06-22T07:54:07.417Z,1.80
2018-06-22T07:56:43.351Z,1.77
2018-06-22T07:59:18.150Z,1.50
2018-06-22T08:01:53.725Z,1.97
2018-06-22T08:04:29.066Z,1.77
2018-06-22T08:07:03.872Z,2.00
2018-06-22T08:09:39.598Z,1.80
2018-06-22T08:12:15.232Z,1.77
2018-06-22T08:14:50.536Z,1.73
2018-06-22T08:17:25.563Z,1.53
2018-06-22T08:20:01.370Z,1.93
2018-06-22T08:22:37.493Z,1.77
2018-06-22T08:25:12.330Z,1.87
2018-06-22T08:27:48.238Z,1.80
2018-06-22T08:30:23.699Z,1.70
2018-06-22T08:33:01.053Z,1.90
2018-06-22T08:35:36.038Z,1.90
2018-06-22T08:38:11.546Z,2.07
2018-06-22T08:40:46.909Z,1.70
2018-06-22T08:43:22.642Z,1.50
2018-06-22T08:45:59.810Z,1.70
2018-06-22T08:48:35.465Z,1.93
2018-06-22T08:51:11.010Z,1.90
2018-06-22T08:53:46.330Z,1.57
2018-06-22T08:56:22.076Z,1.70
2018-06-22T08:58:57.265Z,1.67
2018-06-22T09:01:33.008Z,1.57
2018-06-22T09:04:08.733Z,1.70
2018-06-22T09:06:44.733Z,1.60
2018-06-22T09:09:20.258Z,1.67
2018-06-22T09:11:55.764Z,1.63
2018-06-22T09:14:31.703Z,1.80
2018-06-22T09:17:06.252Z,1.80
2018-06-22T09:19:42.847Z,2.00
2018-06-22T09:22:19.524Z,1.83
2018-06-22T09:24:55.732Z,1.87
2018-06-22T09:27:31.843Z,1.80
2018-06-22T09:30:07.120Z,1.70
2018-06-22T09:32:43.039Z,1.90
2018-06-22T09:35:19.418Z,1.73
2018-06-22T09:37:55.502Z,1.60
2018-06-22T09:40:31.393Z,1.87
2018-06-22T09:43:06.864Z,2.50
2018-06-22T09:45:42.091Z,1.80
2018-06-22T09:48:17.927Z,1.80
2018-06-22T09:50:53.366Z,1.63
2018-06-22T09:53:29.608Z,1.70
2018-06-22T09:56:04.552Z,1.70
2018-06-22T09:58:40.598Z,1.50
2018-06-22T10:01:16.287Z,1.60
2018-06-22T10:03:51.416Z,1.40
2018-06-22T10:06:28.395Z,1.63
2018-06-22T10:09:03.416Z,1.90
2018-06-22T10:11:40.042Z,1.70
2018-06-22T10:14:16.669Z,1.80
2018-06-22T10:16:52.900Z,1.60
2018-06-22T10:19:28.177Z,1.83
2018-06-22T10:22:03.212Z,1.77
2018-06-22T10:24:40.483Z,1.83
2018-06-22T10:27:16.259Z,1.60
2018-06-22T10:29:51.790Z,1.67
2018-06-22T10:32:27.932Z,1.87
2018-06-22T10:35:02.573Z,1.57
2018-06-22T10:37:39.356Z,1.70
2018-06-22T10:40:15.340Z,1.63
2018-06-22T10:42:51.243Z,2.00
2018-06-22T10:45:26.371Z,1.70
2018-06-22T10:48:02.467Z,1.60
2018-06-22T10:50:39.115Z,1.90
2018-06-22T10:53:17.228Z,1.80
2018-06-22T10:55:52.598Z,1.50
2018-06-22T10:58:28.427Z,1.80
2018-06-22T11:01:03.650Z,2.00
2018-06-22T11:03:39.599Z,1.90
2018-06-22T11:06:15.560Z,1.80
2018-06-22T11:08:51.589Z,1.57
2018-06-22T11:11:28.795Z,1.60
2018-06-22T11:14:04.833Z,1.83
2018-06-22T11:16:40.751Z,1.80
2018-06-22T11:19:17.283Z,1.90
2018-06-22T11:21:53.130Z,2.23
2018-06-22T11:24:30.022Z,2.10
2018-06-22T11:27:07.173Z,1.60
2018-06-22T11:29:43.041Z,1.50
2018-06-22T11:32:20.203Z,1.60
2018-06-22T11:34:58.260Z,1.80
2018-06-22T11:37:33.358Z,2.03
2018-06-22T11:40:10.922Z,1.70
2018-06-22T11:42:46.419Z,2.30
2018-06-22T11:45:21.750Z,1.90
2018-06-22T11:48:00.670Z,1.67
2018-06-22T11:50:38.386Z,1.73
2018-06-22T11:53:13.096Z,1.60
2018-06-22T11:55:51.794Z,2.17
2018-06-22T11:58:28.088Z,1.90
2018-06-22T12:01:03.711Z,1.90
2018-06-22T12:03:38.866Z,2.03
2018-06-22T12:06:14.383Z,1.77
2018-06-22T12:08:50.564Z,1.63
2018-06-22T12:11:27.103Z,2.10
2018-06-22T12:14:02.273Z,2.00
2018-06-22T12:16:38.383Z,1.70
2018-06-22T12:19:14.634Z,1.80
2018-06-22T12:21:50.157Z,1.90
2018-06-22T12:24:25.134Z,1.90
2018-06-22T12:27:00.493Z,1.83
2018-06-22T12:29:36.071Z,1.67
2018-06-22T12:32:11.975Z,2.07
2018-06-22T12:34:47.296Z,1.67
2018-06-22T12:37:22.488Z,2.10
2018-06-22T12:39:58.008Z,2.00
2018-06-22T12:42:33.176Z,1.97
2018-06-22T12:45:08.681Z,2.30
2018-06-22T12:47:45.359Z,1.80
2018-06-22T12:50:20.726Z,1.90
2018-06-22T12:52:56.263Z,2.00
2018-06-22T12:55:31.695Z,1.87
2018-06-22T12:58:07.549Z,2.00
2018-06-22T13:00:42.256Z,2.17
2018-06-22T13:03:17.293Z,1.80
2018-06-22T13:05:52.519Z,1.87
2018-06-22T13:08:28.117Z,1.83
2018-06-22T13:11:03.436Z,1.80
2018-06-22T13:13:39.048Z,2.00
2018-06-22T13:16:15.361Z,2.10
2018-06-22T13:18:51.492Z,6.67
2018-06-22T13:21:26.621Z,2.33
2018-06-22T13:24:02.077Z,1.80
2018-06-22T13:26:37.235Z,1.70
2018-06-22T13:29:13.695Z,1.80
2018-06-22T13:31:48.522Z,1.70
2018-06-22T13:34:23.454Z,2.07
2018-06-22T13:36:58.985Z,2.30
2018-06-22T13:39:34.537Z,1.97
2018-06-22T13:42:10.372Z,1.70
2018-06-22T13:44:45.420Z,2.03
2018-06-22T13:47:20.732Z,2.67
2018-06-22T13:49:55.185Z,1.93
2018-06-22T13:52:30.329Z,1.97
2018-06-22T13:55:05.502Z,2.03
2018-06-22T13:57:40.726Z,2.17
2018-06-22T14:00:15.590Z,1.87
2018-06-22T14:02:50.844Z,1.70
2018-06-22T14:05:31.418Z,2.77
2018-06-22T14:08:06.543Z,2.40
2018-06-22T14:10:42.103Z,3.87
2018-06-22T14:13:17.342Z,2.00
2018-06-22T14:15:52.271Z,2.00
2018-06-22T14:18:30.159Z,2.10
2018-06-22T14:21:06.330Z,1.80
2018-06-22T14:23:42.490Z,1.87
2018-06-22T14:26:18.135Z,1.90
2018-06-22T14:28:53.720Z,2.20
2018-06-22T14:31:30.775Z,2.57
2018-06-22T14:34:06.528Z,2.00
2018-06-22T14:36:41.755Z,2.10
2018-06-22T14:39:18.423Z,1.83
2018-06-22T14:41:53.963Z,1.77
2018-06-22T14:44:29.053Z,1.90
2018-06-22T14:47:04.758Z,1.90
2018-06-22T14:49:39.989Z,1.70
2018-06-22T14:52:14.916Z,1.70
2018-06-22T14:54:55.190Z,2.63
2018-06-22T14:57:35.680Z,2.50
2018-06-22T15:00:16.555Z,2.00
2018-06-22T15:02:57.655Z,2.17
2018-06-22T15:05:38.410Z,2.10
2018-06-22T15:08:16.643Z,2.00
2018-06-22T15:10:52.176Z,2.00
2018-06-22T15:13:26.800Z,2.10
2018-06-22T15:16:03.031Z,2.03
2018-06-22T15:18:37.842Z,1.80
2018-06-22T15:21:12.806Z,1.40
2018-06-22T15:23:47.701Z,1.60
2018-06-22T15:26:23.194Z,1.93
2018-06-22T15:28:58.117Z,1.80
2018-06-22T15:31:33.285Z,1.77
2018-06-22T15:34:13.590Z,1.80
2018-06-22T15:36:53.973Z,1.70
2018-06-22T15:41:39.585Z,1.80
2018-06-22T15:46:21.746Z,1.70
2018-06-22T15:49:01.812Z,1.80
2018-06-22T15:51:41.397Z,1.87
2018-06-22T15:54:21.894Z,1.90
2018-06-22T15:56:56.769Z,1.63
2018-06-22T15:59:32.219Z,1.60
2018-06-22T16:02:12.845Z,1.50
2018-06-22T16:04:48.343Z,1.53
2018-06-22T16:07:23.646Z,1.70
2018-06-22T16:10:01.767Z,2.03
2018-06-22T16:12:38.112Z,1.80
2018-06-22T16:15:19.380Z,1.80
2018-06-22T16:18:00.563Z,1.80
2018-06-22T16:20:41.160Z,1.60
2018-06-22T16:23:21.528Z,2.27
2018-06-22T16:26:03.927Z,1.80
2018-06-22T16:28:39.640Z,1.70
2018-06-22T16:31:14.909Z,1.60
2018-06-22T16:33:55.886Z,1.87
2018-06-22T16:36:30.936Z,2.17
2018-06-22T16:39:10.255Z,1.97
2018-06-22T16:41:45.411Z,2.13
2018-06-22T16:44:21.154Z,2.03
2018-06-22T16:46:56.045Z,2.10
2018-06-22T16:49:31.271Z,1.80
2018-06-22T16:52:06.860Z,1.97
2018-06-22T16:54:41.497Z,1.97
2018-06-22T16:57:17.074Z,1.73
2018-06-22T16:59:52.677Z,1.63
2018-06-22T17:02:27.896Z,1.90
2018-06-22T17:05:05.024Z,1.80
2018-06-22T17:07:46.589Z,1.67
2018-06-22T17:10:26.618Z,2.07
2018-06-22T17:13:07.140Z,1.80
2018-06-22T17:15:47.487Z,1.80
2018-06-22T17:18:28.133Z,1.63
2018-06-22T17:21:03.218Z,2.50
2018-06-22T17:23:38.866Z,2.60
2018-06-22T17:26:13.923Z,2.43
2018-06-22T17:28:48.933Z,2.57
2018-06-22T17:31:24.000Z,2.60
2018-06-22T17:33:59.097Z,2.33
2018-06-22T17:36:34.330Z,2.43
2018-06-22T17:39:12.010Z,2.17
2018-06-22T17:41:49.973Z,2.03
2018-06-22T17:44:25.508Z,2.00
2018-06-22T17:47:01.634Z,2.50
2018-06-22T17:49:37.422Z,2.43
2018-06-22T17:52:12.986Z,2.17
2018-06-22T17:54:48.277Z,2.10
2018-06-22T17:57:23.940Z,2.53
2018-06-22T18:00:04.370Z,2.03
2018-06-22T18:02:44.767Z,2.17
2018-06-22T18:05:25.579Z,2.10
2018-06-22T18:08:00.640Z,1.93
2018-06-22T18:10:41.340Z,2.03
2018-06-22T18:13:16.967Z,2.20
2018-06-22T18:15:52.227Z,1.93
2018-06-22T18:18:27.514Z,2.10
2018-06-22T18:21:02.910Z,1.70
2018-06-22T18:23:37.954Z,2.23
2018-06-22T18:26:13.307Z,2.00
2018-06-22T18:28:48.607Z,2.00
2018-06-22T18:31:25.287Z,2.20
2018-06-22T18:34:01.004Z,1.93
2018-06-22T18:36:36.726Z,2.03
2018-06-22T18:39:14.949Z,1.93
2018-06-22T18:41:50.238Z,1.93
2018-06-22T18:44:26.444Z,2.33
2018-06-22T18:47:01.472Z,2.00
2018-06-22T18:49:37.118Z,2.00
2018-06-22T18:52:17.801Z,2.20
2018-06-22T18:54:58.486Z,2.00
2018-06-22T18:57:39.083Z,2.17
2018-06-22T19:00:19.679Z,2.10
2018-06-22T19:02:59.499Z,2.10
2018-06-22T19:05:34.241Z,2.20
2018-06-22T19:08:09.451Z,2.37
2018-06-22T19:10:44.063Z,2.53
2018-06-22T19:13:19.628Z,2.03
2018-06-22T19:15:54.663Z,2.67
2018-06-22T19:18:29.953Z,2.17
2018-06-22T19:21:12.373Z,2.13
2018-06-22T19:23:48.034Z,2.00
2018-06-22T19:26:23.069Z,2.60
2018-06-22T19:28:59.898Z,2.47
2018-06-22T19:31:35.202Z,2.30
2018-06-22T19:34:11.975Z,2.30
2018-06-22T19:36:47.275Z,2.97
2018-06-22T19:39:23.129Z,2.80
2018-06-22T19:41:58.386Z,2.50
2018-06-22T19:44:38.657Z,2.60
2018-06-22T19:47:18.979Z,2.43
2018-06-22T19:49:59.155Z,2.70
2018-06-22T19:52:40.453Z,2.90
2018-06-22T19:55:15.577Z,2.90
2018-06-22T19:57:50.983Z,4.13
2018-06-22T20:00:26.156Z,3.20
2018-06-22T20:03:01.502Z,3.13
2018-06-22T20:05:37.426Z,3.40
2018-06-22T20:08:13.510Z,2.73
2018-06-22T20:10:48.924Z,3.10
2018-06-22T20:13:24.686Z,2.83
2018-06-22T20:15:59.364Z,3.00
2018-06-22T20:18:34.019Z,2.90
2018-06-22T20:21:11.329Z,2.80
2018-06-22T20:23:46.338Z,3.03
2018-06-22T20:26:21.563Z,3.20
2018-06-22T20:28:57.440Z,3.00
2018-06-22T20:31:37.858Z,2.63
2018-06-22T20:34:18.071Z,3.20
2018-06-22T20:36:58.427Z,2.77
2018-06-22T20:39:38.799Z,3.13
2018-06-22T20:44:21.071Z,2.80
2018-06-22T20:47:01.652Z,3.40
2018-06-22T20:49:41.709Z,3.33
2018-06-22T20:52:17.423Z,3.17
2018-06-22T20:54:53.701Z,3.67
2018-06-22T20:57:28.314Z,3.20
2018-06-22T21:00:05.039Z,3.40
2018-06-22T21:02:39.753Z,3.53
2018-06-22T21:05:16.198Z,3.67
2018-06-22T21:07:51.719Z,3.50
2018-06-22T21:10:27.377Z,3.00
2018-06-22T21:13:03.768Z,2.93
2018-06-22T21:15:38.641Z,3.50
2018-06-22T21:18:13.236Z,3.70
2018-06-22T21:20:54.477Z,4.20
2018-06-22T21:23:30.182Z,3.87
2018-06-22T21:26:04.982Z,3.70
2018-06-22T21:28:46.924Z,4.60
2018-06-22T21:31:27.335Z,4.10
2018-06-22T21:34:07.880Z,4.63
2018-06-22T21:36:48.986Z,4.63
2018-06-22T21:39:23.831Z,4.67
2018-06-22T21:41:59.611Z,4.20
2018-06-22T21:44:35.540Z,4.20
2018-06-22T21:47:12.040Z,4.30
2018-06-22T21:49:49.290Z,4.47
2018-06-22T21:52:24.220Z,5.10
2018-06-22T21:55:00.154Z,4.93
2018-06-22T21:57:35.532Z,4.60
2018-06-22T22:00:12.274Z,5.10
2018-06-22T22:02:48.168Z,5.50
2018-06-22T22:05:23.373Z,6.27
2018-06-22T22:07:59.258Z,6.03
2018-06-22T22:10:39.555Z,6.23
2018-06-22T22:13:15.452Z,7.10
2018-06-22T22:15:50.524Z,9.17
2018-06-22T22:18:25.894Z,9.90
2018-06-22T22:21:01.525Z,9.80
2018-06-22T22:23:37.300Z,9.17
2018-06-22T22:26:14.244Z,10.43
2018-06-22T22:28:49.377Z,9.60
2018-06-22T22:31:25.482Z,9.77
2018-06-22T22:34:01.006Z,8.97
2018-06-22T22:36:36.260Z,10.67
2018-06-22T22:39:11.774Z,11.33
2018-06-22T22:41:47.503Z,11.10
2018-06-22T22:44:23.299Z,9.10
2018-06-22T22:46:58.923Z,9.33
2018-06-22T22:49:34.485Z,7.40
2018-06-22T22:52:10.085Z,5.60
2018-06-22T22:54:47.213Z,7.53
2018-06-22T22:57:21.943Z,9.57
2018-06-22T22:59:59.431Z,9.93
2018-06-22T23:02:34.896Z,9.67
2018-06-22T23:05:10.433Z,8.47
2018-06-22T23:07:46.039Z,9.47
2018-06-22T23:10:22.132Z,10.47
2018-06-22T23:12:57.826Z,9.77
2018-06-22T23:15:33.112Z,9.13
2018-06-22T23:18:09.011Z,7.97
2018-06-22T23:20:44.367Z,9.00
2018-06-22T23:23:36.637Z,8.20
2018-06-22T23:26:11.693Z,6.40
2018-06-22T23:28:47.526Z,6.27
2018-06-22T23:31:22.637Z,5.87
2018-06-22T23:33:58.626Z,5.57
2018-06-22T23:36:34.068Z,5.60
2018-06-22T23:39:11.389Z,5.33
2018-06-22T23:41:46.869Z,5.60
2018-06-22T23:44:22.206Z,5.10
2018-06-22T23:46:57.387Z,5.40
2018-06-22T23:49:33.507Z,5.30
2018-06-22T23:52:09.066Z,5.63
2018-06-22T23:54:44.306Z,5.67
2018-06-22T23:57:20.986Z,5.83
2018-06-22T23:59:56.378Z,5.73
